Last 24 Hours

Squaw-Belmont 8000'

Hourly Data | America/Los_Angeles
as of 1/15/21 1:07 PM PST
Date & Time Temp (°F) RH (%) Dew Pt (°F) Wet Bulb (°F) Wind Dir (°) Wind Spd (mph) Wind Gust (mph) WindChill (°F) Latest Rain (In) New Snow (in) SnowDepth (in) Daily Min Temp (°F) Daily Max Temp (°F) Daily Rain (In)
1/15/21 - 1300 50.3 24 14.5 35.8 WSW | 243 12.3 20.4 47.9 0.00 0.0 45.2 44.3 55.0 0.00
1/15/21 - 1200 53.5 19 12.8 37.1 SW | 231 10.7 19.1 50.9 0.00 0.0 45.3 44.3 55.0 0.00
1/15/21 - 1100 51.4 20 12.0 35.8 SW | 231 10.0 18.0 51.3 0.00 0.0 45.4 44.3 54.9 0.00
1/15/21 - 1000 53.2 16 7.5 35.9 SW | 229 8.3 15.0 53.1 0.00 0.0 45.4 44.3 54.9 0.00
1/15/21 - 0900 53.8 14 5.3 35.9 SW | 226 7.6 15.0 49.3 0.00 0.0 45.4 44.3 53.8 0.00
1/15/21 - 0800 50.4 16 6.3 34.3 WSW | 246 4.7 11.8 49.9 0.00 0.0 45.4 44.3 51.6 0.00
1/15/21 - 0700 50.8 12 -0.7 33.4 WSW | 250 3.3 6.7 49.6 0.00 0.0 45.4 44.3 50.8 0.00
1/15/21 - 0600 48.9 10 -5.7 31.9 WNW | 291 3.3 6.9 47.8 0.00 0.0 45.4 44.3 49.6 0.00
1/15/21 - 0500 48.4 12 -2.5 31.9 WNW | 296 2.9 5.3 47.5 0.00 0.0 45.4 44.3 49.2 0.00
1/15/21 - 0400 48.7 15 3.8 33.0 W | 268 1.9 5.5 48.0 0.00 0.0 45.4 44.3 49.2 0.00
1/15/21 - 0300 46.8 17 4.1 32.0 NW | 316 4.9 7.5 44.9 0.00 0.0 45.4 44.3 48.3 0.00
1/15/21 - 0200 47.9 17 5.2 32.7 SW | 236 1.7 4.8 47.3 0.00 0.0 45.4 44.3 48.3 0.00
1/15/21 - 0100 46.3 30 16.5 34.2 SSW | 205 1.8 3.8 46.1 0.00 0.0 45.4 44.3 47.0 0.00
1/15/21 - 0000 44.3 35 18.4 33.7 N | 9 0.5 4.2 43.5 0.00 0.0 45.6 34.9 51.6 0.00
1/14/21 - 2300 43.6 39 20.5 33.9 SSE | 166 0.9 3.8 45.3 0.00 0.0 45.6 34.9 51.6 0.00
1/14/21 - 2200 45.9 35 20.0 35.0 SW | 234 0.2 2.1 44.8 0.00 0.0 45.5 34.9 51.6 0.00
1/14/21 - 2100 44.2 35 18.3 33.6 NNE | 13 0.7 2.5 44.1 0.00 0.0 45.6 34.9 51.6 0.00
1/14/21 - 2000 44.0 36 18.5 33.6 SW | 220 0.4 3.8 44.0 0.00 0.0 45.5 34.9 51.6 0.00
1/14/21 - 1900 42.1 30 12.6 31.0 N | 349 1.5 3.9 42.2 0.00 0.0 45.6 34.9 51.6 0.00
1/14/21 - 1800 42.9 30 13.2 31.6 ENE | 68 0.9 4.1 42.7 0.00 0.0 45.7 34.9 51.6 0.00
1/14/21 - 1700 43.0 32 14.9 32.0 ENE | 62 2.2 6.0 43.7 0.00 0.0 45.7 34.9 51.6 0.00
1/14/21 - 1600 45.4 30 16.1 33.6 ENE | 76 2.5 9.5 45.7 0.00 0.0 45.6 34.9 51.6 0.00
1/14/21 - 1500 47.5 30 17.6 35.1 ESE | 122 3.1 9.1 48.4 0.00 0.0 45.6 34.9 51.6 0.00
1/14/21 - 1400 47.8 28 16.0 34.8 E | 81 4.2 8.5 47.0 0.00 0.0 45.7 34.9 50.9 0.00
1/14/21 - 1300 48.9 27 16.4 35.5 ESE | 108 3.1 9.2 48.8 0.00 0.0 45.6 34.9 50.9 0.00
Max 53.8 39 20.5 37.1 - 12.3 20.4 53.1 0.00 0.0 45.7 44.3 55.0 0.00
Avg 47.6 24 11.3 33.9 - 3.7 8.3 47.0 0.00 0.0 45.5 - - -
Min 42.1 10 -5.7 31.0 - 0.2 2.1 42.2 0.00 0.0 45.2 34.9 47.0 0.00
Total - - - - - - - - 0.00 - - - - -